Time;durP1;ratioP1;P1;durP2;ratioP2;P2;SDS_P1;SDS_P2;PMS_P1;PMS_P2;Temp;Humidity;BMP_temperature;BMP_pressure;BME280_temperature;BME280_humidity;BME280_pressure;Samples;Min_cycle;Max_cycle;Signal;HPM_P1;HPM_P2
2021/05/31 00:01:15;;;;;;;3.80;2.60;;;19.30;53.80;;;;;;3135422;28;20102;-81
2021/05/31 00:02:46;;;;;;;3.75;2.80;;;19.30;53.80;;;;;;3136405;28;20417;-82
2021/05/31 00:04:17;;;;;;;3.33;3.03;;;19.30;53.80;;;;;;3136923;28;20049;-81
2021/05/31 00:05:48;;;;;;;2.78;2.58;;;19.30;53.70;;;;;;3136205;28;20045;-81
2021/05/31 00:07:19;;;;;;;4.30;2.92;;;19.30;53.70;;;;;;3137079;28;20053;-82
2021/05/31 00:08:51;;;;;;;3.13;2.72;;;19.30;53.70;;;;;;3136474;28;20048;-81
2021/05/31 00:10:22;;;;;;;3.25;2.85;;;19.30;53.70;;;;;;3136015;28;20543;-82
2021/05/31 00:11:53;;;;;;;3.00;2.70;;;19.30;53.70;;;;;;3136616;28;20040;-81
2021/05/31 00:13:24;;;;;;;3.10;2.80;;;19.30;53.80;;;;;;3136993;28;20095;-81
2021/05/31 00:14:56;;;;;;;3.17;2.75;;;19.30;53.70;;;;;;3137775;28;20409;-82
2021/05/31 00:16:27;;;;;;;3.05;2.60;;;19.20;53.70;;;;;;3138597;28;20053;-81
2021/05/31 00:17:58;;;;;;;3.60;2.97;;;19.20;53.70;;;;;;3139635;28;20048;-82
2021/05/31 00:19:29;;;;;;;3.53;3.20;;;19.30;53.70;;;;;;3140429;28;20049;-82
2021/05/31 00:21:01;;;;;;;4.28;3.42;;;19.20;53.70;;;;;;3139777;28;20421;-82
2021/05/31 00:22:31;;;;;;;3.85;2.90;;;19.30;53.70;;;;;;3140448;28;20048;-82
2021/05/31 00:24:04;;;;;;;3.03;2.70;;;19.30;53.70;;;;;;3140005;28;20056;-82
2021/05/31 00:25:35;;;;;;;2.90;2.60;;;19.30;53.70;;;;;;3138983;28;20063;-81
2021/05/31 00:27:06;;;;;;;3.60;2.80;;;19.20;53.60;;;;;;3139932;28;20049;-82
2021/05/31 00:28:38;;;;;;;3.50;2.67;;;19.30;53.70;;;;;;3140034;28;20045;-81
2021/05/31 00:30:10;;;;;;;3.53;2.80;;;19.30;53.70;;;;;;3138304;28;20041;-82
2021/05/31 00:31:40;;;;;;;4.30;3.08;;;19.30;53.60;;;;;;3139867;28;20175;-81
2021/05/31 00:33:12;;;;;;;3.55;3.00;;;19.30;53.60;;;;;;3139826;28;20053;-82
2021/05/31 00:34:43;;;;;;;3.70;2.97;;;19.30;53.60;;;;;;3140028;28;20398;-82
2021/05/31 00:36:14;;;;;;;4.90;2.90;;;19.30;53.60;;;;;;3139230;28;20048;-81
2021/05/31 00:37:45;;;;;;;3.25;2.95;;;19.20;53.60;;;;;;3139223;28;20505;-82
2021/05/31 00:39:17;;;;;;;3.83;2.90;;;19.20;53.60;;;;;;3139724;28;20049;-81
2021/05/31 00:40:48;;;;;;;3.50;2.92;;;19.20;53.60;;;;;;3138282;28;20045;-81
2021/05/31 00:42:19;;;;;;;4.43;3.00;;;19.30;53.60;;;;;;3139653;28;20053;-83
2021/05/31 00:43:50;;;;;;;3.05;2.70;;;19.20;53.60;;;;;;3139591;28;20051;-82
2021/05/31 00:45:21;;;;;;;4.63;2.85;;;19.20;53.60;;;;;;3138271;28;20053;-82
2021/05/31 00:46:52;;;;;;;3.22;2.50;;;19.30;53.60;;;;;;3139935;28;20045;-81
2021/05/31 00:48:23;;;;;;;3.08;2.78;;;19.30;53.60;;;;;;3139928;28;20071;-81
2021/05/31 00:49:54;;;;;;;3.25;2.58;;;19.30;53.60;;;;;;3138999;28;20486;-82
2021/05/31 00:51:25;;;;;;;3.78;2.80;;;19.20;53.60;;;;;;3139308;28;20037;-80
2021/05/31 00:52:56;;;;;;;3.20;2.90;;;19.20;53.50;;;;;;3139522;28;20045;-82
2021/05/31 00:54:28;;;;;;;3.88;2.65;;;19.20;53.60;;;;;;3139724;28;20057;-80
2021/05/31 00:56:00;;;;;;;6.03;3.00;;;19.20;53.60;;;;;;3139067;28;20045;-82
2021/05/31 00:57:31;;;;;;;3.05;2.75;;;19.20;53.50;;;;;;3139386;28;20060;-82
2021/05/31 00:59:02;;;;;;;3.60;2.80;;;19.20;53.50;;;;;;3139709;28;20140;-82
2021/05/31 01:00:33;;;;;;;2.92;2.63;;;19.20;53.50;;;;;;3137467;28;20068;-82
2021/05/31 01:02:04;;;;;;;3.75;2.85;;;19.20;53.50;;;;;;3139848;28;20566;-81
2021/05/31 01:03:35;;;;;;;3.30;2.65;;;19.20;53.50;;;;;;3139547;28;20098;-80
2021/05/31 01:05:07;;;;;;;2.72;2.53;;;19.20;53.50;;;;;;3139635;28;20052;-81
2021/05/31 01:06:40;;;;;;;3.20;2.72;;;19.20;53.40;;;;;;3139397;28;20418;-80
2021/05/31 01:08:12;;;;;;;3.75;2.97;;;19.20;53.40;;;;;;3140039;28;20051;-81
2021/05/31 01:09:46;;;;;;;3.42;2.90;;;19.20;53.40;;;;;;3138871;28;20059;-82
2021/05/31 01:11:22;;;;;;;4.07;2.83;;;19.20;53.40;;;;;;3138886;28;20057;-82
2021/05/31 01:12:56;;;;;;;2.95;2.63;;;19.20;53.50;;;;;;3139160;28;20045;-82
2021/05/31 01:14:30;;;;;;;3.42;2.42;;;19.20;53.50;;;;;;3139658;28;20413;-82
2021/05/31 01:16:05;;;;;;;3.67;2.83;;;19.20;53.50;;;;;;3137456;28;20060;-83
2021/05/31 01:17:42;;;;;;;2.88;2.63;;;19.20;53.40;;;;;;3139031;28;20101;-83
2021/05/31 01:19:15;;;;;;;2.90;2.65;;;19.20;53.40;;;;;;3139588;28;20049;-83
2021/05/31 01:20:55;;;;;;;;;;;19.20;53.40;;;;;;3138923;28;20068;-82
2021/05/31 01:22:27;;;;;;;3.10;2.50;;;19.30;53.50;;;;;;3139095;28;20385;-81
2021/05/31 01:24:02;;;;;;;3.25;2.88;;;19.20;53.40;;;;;;3138849;28;20045;-82
2021/05/31 01:25:37;;;;;;;2.80;2.60;;;19.20;53.40;;;;;;3139045;28;20055;-81
2021/05/31 01:27:10;;;;;;;3.58;3.00;;;19.20;53.40;;;;;;3139502;28;20410;-82
2021/05/31 01:29:01;;;;;;;2.80;2.53;;;19.20;53.40;;;;;;3139168;28;20084;-82
2021/05/31 01:30:32;;;;;;;3.30;3.00;;;19.20;53.40;;;;;;3137118;28;20049;-82
2021/05/31 01:32:03;;;;;;;4.15;2.60;;;19.30;53.40;;;;;;3139672;28;20047;-82
2021/05/31 01:33:34;;;;;;;2.88;2.50;;;19.30;53.30;;;;;;3139649;28;20049;-81
2021/05/31 01:35:07;;;;;;;2.95;2.40;;;19.20;53.30;;;;;;3139069;28;20049;-83
2021/05/31 01:36:40;;;;;;;3.30;2.80;;;19.20;53.30;;;;;;3139261;28;20049;-81
2021/05/31 01:38:11;;;;;;;3.20;2.58;;;19.20;53.30;;;;;;3139612;28;20057;-82
2021/05/31 01:39:44;;;;;;;2.83;2.42;;;19.20;53.30;;;;;;3138735;28;20657;-81
2021/05/31 01:41:15;;;;;;;3.00;2.67;;;19.20;53.30;;;;;;3138662;28;20045;-81
2021/05/31 01:42:46;;;;;;;4.10;2.70;;;19.20;53.30;;;;;;3138873;28;20056;-82
2021/05/31 01:44:19;;;;;;;2.90;2.60;;;19.20;53.30;;;;;;3138693;28;20452;-82
2021/05/31 01:45:50;;;;;;;3.05;2.80;;;19.30;53.40;;;;;;3138284;28;20049;-82
2021/05/31 01:47:21;;;;;;;3.17;2.80;;;19.20;53.30;;;;;;3139065;28;20083;-82
2021/05/31 01:48:52;;;;;;;3.13;2.83;;;19.20;53.30;;;;;;3139254;28;20785;-82
2021/05/31 01:50:24;;;;;;;2.90;2.55;;;19.20;53.30;;;;;;3138403;28;20045;-81
2021/05/31 01:51:55;;;;;;;3.38;2.60;;;19.20;53.90;;;;;;3139282;28;20592;-82
2021/05/31 01:53:26;;;;;;;3.10;2.75;;;19.20;53.20;;;;;;3139349;28;20045;-81
2021/05/31 01:54:58;;;;;;;3.08;2.70;;;19.20;53.30;;;;;;3139468;28;20056;-83
2021/05/31 01:56:29;;;;;;;3.00;2.60;;;19.20;53.20;;;;;;3138659;28;20040;-82
2021/05/31 01:58:00;;;;;;;3.10;2.80;;;19.20;53.20;;;;;;3139409;28;20063;-81
2021/05/31 01:59:32;;;;;;;3.50;2.72;;;19.20;53.20;;;;;;3139110;28;20041;-80
2021/05/31 02:01:05;;;;;;;3.10;2.55;;;19.20;53.10;;;;;;3137528;28;20049;-83
2021/05/31 02:02:35;;;;;;;2.78;2.42;;;19.20;53.10;;;;;;3139209;28;20112;-82
2021/05/31 02:04:07;;;;;;;2.95;2.70;;;19.30;53.10;;;;;;3139059;28;20041;-82
2021/05/31 02:05:38;;;;;;;2.90;2.60;;;19.20;53.10;;;;;;3138378;28;20429;-83
2021/05/31 02:07:09;;;;;;;3.03;2.72;;;19.20;53.00;;;;;;3139396;28;20548;-83
2021/05/31 02:08:40;;;;;;;3.10;2.80;;;19.20;53.00;;;;;;3139162;28;20048;-81
2021/05/31 02:10:12;;;;;;;3.17;2.35;;;19.20;53.00;;;;;;3138100;28;20413;-81
2021/05/31 02:11:44;;;;;;;3.33;2.50;;;19.30;53.10;;;;;;3138857;28;20143;-81
2021/05/31 02:13:15;;;;;;;4.10;2.58;;;19.20;53.00;;;;;;3136139;28;20049;-81
2021/05/31 02:14:50;;;;;;;3.70;2.67;;;19.20;53.00;;;;;;3134981;28;20394;-82
2021/05/31 02:16:23;;;;;;;3.45;2.58;;;19.20;53.00;;;;;;3136660;28;20053;-81
2021/05/31 02:18:00;;;;;;;3.85;2.67;;;19.20;53.10;;;;;;3138605;28;20060;-81
2021/05/31 02:19:32;;;;;;;2.50;2.30;;;19.20;53.00;;;;;;3137777;28;20045;-80
2021/05/31 02:21:05;;;;;;;3.00;2.70;;;19.20;53.00;;;;;;3137910;28;20417;-81
2021/05/31 02:22:39;;;;;;;2.95;2.42;;;19.20;53.00;;;;;;3134656;28;20045;-82
2021/05/31 02:24:10;;;;;;;3.35;2.90;;;19.20;53.10;;;;;;3135215;28;20083;-81
2021/05/31 02:25:41;;;;;;;2.78;2.58;;;19.20;53.20;;;;;;3135025;28;20099;-81
2021/05/31 02:27:12;;;;;;;3.50;2.78;;;19.20;53.00;;;;;;3135139;28;20083;-81
2021/05/31 02:28:44;;;;;;;2.90;2.53;;;19.20;53.00;;;;;;3135101;28;20421;-81
2021/05/31 02:30:17;;;;;;;3.00;2.70;;;19.20;53.00;;;;;;3133979;28;20044;-81
2021/05/31 02:31:48;;;;;;;2.90;2.40;;;19.20;53.00;;;;;;3135540;28;20378;-82
2021/05/31 02:33:22;;;;;;;2.60;2.40;;;19.20;53.00;;;;;;3135211;28;20088;-81
2021/05/31 02:34:53;;;;;;;3.47;2.40;;;19.20;53.10;;;;;;3135551;28;20457;-81
2021/05/31 02:36:25;;;;;;;3.53;2.60;;;19.20;53.00;;;;;;3134658;28;20362;-81
2021/05/31 02:37:57;;;;;;;2.75;2.55;;;19.20;53.00;;;;;;3134865;28;20049;-81
2021/05/31 02:41:01;;;;;;;2.97;2.70;;;19.20;53.00;;;;;;3132961;28;20420;-78
2021/05/31 02:42:37;;;;;;;2.60;2.40;;;19.20;53.00;;;;;;3136307;28;20075;-79
2021/05/31 02:44:08;;;;;;;4.03;2.80;;;19.20;53.00;;;;;;3136060;28;20052;-79
2021/05/31 02:45:40;;;;;;;2.83;2.40;;;19.20;53.00;;;;;;3134176;28;20049;-79
2021/05/31 02:47:11;;;;;;;2.60;2.40;;;19.20;53.00;;;;;;3135947;28;20290;-79
2021/05/31 02:48:42;;;;;;;3.47;2.85;;;19.20;53.00;;;;;;3135504;28;20045;-79
2021/05/31 02:50:13;;;;;;;3.05;2.53;;;19.20;53.00;;;;;;3134838;28;20060;-79
2021/05/31 02:51:44;;;;;;;2.88;2.60;;;19.20;53.00;;;;;;3135976;28;20060;-80
2021/05/31 02:53:15;;;;;;;2.63;2.42;;;19.20;53.00;;;;;;3135991;28;20460;-79
2021/05/31 02:54:46;;;;;;;2.85;2.45;;;19.20;53.00;;;;;;3135636;28;20049;-79
2021/05/31 02:56:17;;;;;;;3.35;2.85;;;19.20;53.00;;;;;;3135668;28;20087;-79
2021/05/31 02:57:48;;;;;;;3.38;2.60;;;19.20;53.00;;;;;;3135923;28;20441;-79
2021/05/31 02:59:19;;;;;;;3.13;2.50;;;19.20;53.00;;;;;;3135936;28;20045;-79
2021/05/31 03:00:51;;;;;;;3.22;2.70;;;19.20;53.00;;;;;;3133916;28;20118;-80
2021/05/31 03:02:23;;;;;;;2.88;2.40;;;19.20;53.00;;;;;;3135910;28;20049;-80
2021/05/31 03:03:54;;;;;;;3.10;2.78;;;19.30;52.90;;;;;;3135834;28;20421;-79
2021/05/31 03:05:27;;;;;;;2.50;2.30;;;19.20;52.90;;;;;;3135158;28;20052;-79
2021/05/31 03:06:58;;;;;;;2.55;2.35;;;19.20;52.90;;;;;;3135852;28;20045;-79
2021/05/31 03:08:29;;;;;;;2.88;2.67;;;19.20;52.90;;;;;;3136014;28;20484;-80
2021/05/31 03:10:00;;;;;;;3.28;2.63;;;19.20;52.90;;;;;;3135071;28;20049;-78
2021/05/31 03:11:31;;;;;;;2.92;2.47;;;19.20;52.90;;;;;;3135139;28;20069;-79
2021/05/31 03:13:03;;;;;;;2.58;2.38;;;19.20;52.90;;;;;;3135633;28;20080;-79
2021/05/31 03:14:35;;;;;;;2.70;2.50;;;19.20;52.80;;;;;;3135895;28;20049;-78
2021/05/31 03:16:07;;;;;;;3.13;2.83;;;19.20;52.80;;;;;;3134705;28;20505;-80
2021/05/31 03:17:38;;;;;;;2.70;2.50;;;19.20;52.90;;;;;;3135712;28;20073;-78
2021/05/31 03:19:09;;;;;;;2.80;2.30;;;19.20;53.00;;;;;;3135896;28;20045;-79
2021/05/31 03:20:40;;;;;;;6.45;2.40;;;19.20;52.90;;;;;;3134584;28;20068;-79
2021/05/31 03:22:11;;;;;;;2.72;2.53;;;19.20;52.90;;;;;;3135518;28;20070;-79
2021/05/31 03:23:42;;;;;;;2.60;2.40;;;19.20;52.90;;;;;;3135758;28;20077;-79
2021/05/31 03:25:13;;;;;;;3.08;2.67;;;19.20;52.80;;;;;;3135282;28;20518;-78
2021/05/31 03:26:44;;;;;;;3.03;2.67;;;19.20;52.90;;;;;;3135809;28;20536;-79
2021/05/31 03:28:15;;;;;;;2.70;2.50;;;19.20;52.80;;;;;;3135372;28;20099;-79
2021/05/31 03:29:46;;;;;;;2.50;2.30;;;19.20;52.80;;;;;;3135154;28;20045;-79
2021/05/31 03:31:18;;;;;;;2.75;2.55;;;19.20;52.80;;;;;;3134501;28;20041;-79
2021/05/31 03:32:50;;;;;;;2.60;2.40;;;19.20;52.80;;;;;;3135592;28;20102;-78
2021/05/31 03:34:21;;;;;;;2.72;2.45;;;19.20;53.50;;;;;;3135882;28;20049;-79
2021/05/31 03:35:52;;;;;;;2.67;2.47;;;19.20;52.80;;;;;;3135010;28;20073;-78
2021/05/31 03:37:23;;;;;;;2.92;2.70;;;19.20;52.80;;;;;;3135688;28;20092;-80
2021/05/31 03:38:54;;;;;;;2.75;2.33;;;19.20;52.80;;;;;;3135642;28;20071;-78
2021/05/31 03:40:25;;;;;;;2.75;2.20;;;19.20;52.80;;;;;;3134574;28;20072;-78
2021/05/31 03:41:57;;;;;;;2.97;2.08;;;19.20;52.70;;;;;;3135658;28;20075;-80
2021/05/31 03:43:28;;;;;;;2.58;2.33;;;19.20;52.80;;;;;;3135480;28;20421;-79
2021/05/31 03:44:59;;;;;;;2.53;2.20;;;19.20;52.70;;;;;;3135641;28;20049;-79
2021/05/31 03:46:31;;;;;;;3.70;2.50;;;19.20;52.70;;;;;;3134382;28;20142;-79
2021/05/31 03:48:02;;;;;;;3.22;2.60;;;19.20;52.70;;;;;;3136177;28;20080;-78
2021/05/31 03:49:33;;;;;;;2.67;2.47;;;19.20;52.80;;;;;;3135760;28;20041;-79
2021/05/31 03:51:11;;;;;;;2.83;2.40;;;19.20;52.80;;;;;;3137024;28;20080;-79
2021/05/31 03:52:41;;;;;;;2.75;2.55;;;19.20;52.80;;;;;;3137962;28;20107;-79
2021/05/31 03:54:12;;;;;;;2.50;2.30;;;19.20;52.80;;;;;;3138531;28;20120;-79
2021/05/31 03:55:44;;;;;;;3.08;2.60;;;19.20;52.80;;;;;;3137478;28;20052;-79
2021/05/31 03:57:15;;;;;;;4.53;2.55;;;19.20;52.70;;;;;;3138014;28;20080;-79
2021/05/31 03:58:48;;;;;;;2.70;2.50;;;19.20;52.70;;;;;;3138090;28;20083;-79
2021/05/31 04:00:20;;;;;;;2.40;2.20;;;19.20;52.70;;;;;;3135669;28;20130;-77
2021/05/31 04:01:52;;;;;;;3.30;2.45;;;19.20;52.70;;;;;;3135853;28;20041;-77
2021/05/31 04:03:23;;;;;;;2.60;2.40;;;19.20;52.70;;;;;;3136296;28;20110;-77
2021/05/31 04:04:54;;;;;;;2.42;2.22;;;19.20;52.60;;;;;;3136147;28;20076;-76
2021/05/31 04:06:33;;;;;;;2.40;2.20;;;19.20;52.60;;;;;;3135612;28;20049;-76
2021/05/31 04:11:45;;;;;;;2.60;2.40;;;19.20;52.60;;;;;;3135804;28;20080;-78
2021/05/31 04:13:16;;;;;;;2.83;2.45;;;19.20;52.70;;;;;;3136159;28;20052;-77
2021/05/31 04:14:47;;;;;;;2.50;2.25;;;19.20;52.60;;;;;;3136006;28;20512;-76
2021/05/31 04:16:18;;;;;;;4.15;2.30;;;19.20;52.60;;;;;;3134798;28;20048;-80
2021/05/31 04:17:51;;;;;;;2.53;2.33;;;19.20;52.60;;;;;;3137648;28;20082;-79
2021/05/31 04:19:22;;;;;;;2.38;2.10;;;19.20;52.70;;;;;;3138040;28;20084;-78
2021/05/31 04:20:53;;;;;;;2.58;2.30;;;19.20;53.20;;;;;;3137083;28;20348;-78
2021/05/31 04:22:24;;;;;;;3.08;2.20;;;19.20;52.60;;;;;;3138039;28;20077;-78
2021/05/31 04:23:55;;;;;;;2.30;2.10;;;19.20;52.60;;;;;;3137483;28;20057;-79
2021/05/31 04:25:26;;;;;;;2.58;2.30;;;19.20;52.70;;;;;;3137666;28;20041;-79
2021/05/31 04:26:57;;;;;;;2.30;2.10;;;19.20;52.60;;;;;;3137398;28;20079;-79
2021/05/31 04:28:28;;;;;;;2.47;2.28;;;19.20;52.60;;;;;;3137769;28;20044;-79
2021/05/31 04:29:59;;;;;;;2.50;2.30;;;19.20;52.60;;;;;;3137605;28;20501;-78
2021/05/31 04:31:30;;;;;;;2.38;2.17;;;19.20;52.60;;;;;;3136069;28;20078;-78
2021/05/31 04:33:02;;;;;;;2.95;2.20;;;19.20;52.60;;;;;;3137535;28;20095;-80
2021/05/31 04:34:34;;;;;;;2.60;2.40;;;19.20;52.60;;;;;;3137190;28;20164;-79
2021/05/31 04:36:05;;;;;;;2.70;2.50;;;19.20;52.60;;;;;;3136477;28;20428;-79
2021/05/31 04:37:36;;;;;;;3.95;2.47;;;19.20;52.50;;;;;;3137183;28;20047;-79
2021/05/31 04:39:07;;;;;;;2.58;2.35;;;19.20;52.50;;;;;;3137181;28;20501;-78
2021/05/31 04:40:38;;;;;;;2.22;2.10;;;19.20;52.60;;;;;;3136187;28;20049;-78
2021/05/31 04:42:09;;;;;;;3.05;2.30;;;19.20;52.60;;;;;;3137302;28;20045;-78
2021/05/31 04:43:41;;;;;;;2.63;2.40;;;19.20;52.60;;;;;;3137165;28;20552;-79
2021/05/31 04:45:13;;;;;;;2.40;2.20;;;19.20;52.50;;;;;;3135817;28;20092;-79
2021/05/31 04:46:44;;;;;;;2.28;2.08;;;19.20;52.60;;;;;;3137052;28;20044;-79
2021/05/31 04:48:16;;;;;;;2.63;2.42;;;19.20;52.60;;;;;;3137676;28;20123;-79
2021/05/31 04:49:47;;;;;;;2.75;2.50;;;19.20;52.60;;;;;;3136903;28;20049;-79
2021/05/31 04:51:18;;;;;;;2.47;2.28;;;19.20;52.50;;;;;;3136601;28;20064;-80
2021/05/31 04:52:49;;;;;;;2.55;2.03;;;19.20;52.50;;;;;;3136956;28;20080;-79
2021/05/31 04:54:20;;;;;;;2.50;2.30;;;19.20;52.50;;;;;;3137593;28;20084;-79
2021/05/31 04:55:52;;;;;;;2.63;2.42;;;19.20;52.60;;;;;;3136544;28;20133;-79
2021/05/31 04:57:23;;;;;;;2.60;2.40;;;19.20;52.50;;;;;;3137464;28;20041;-78
2021/05/31 04:58:55;;;;;;;3.17;2.50;;;19.20;52.50;;;;;;3137775;28;20098;-79
2021/05/31 05:00:26;;;;;;;2.35;2.15;;;19.20;52.50;;;;;;3136242;28;20114;-78
2021/05/31 05:01:57;;;;;;;2.58;2.38;;;19.20;52.60;;;;;;3137576;28;20056;-78
2021/05/31 05:03:29;;;;;;;2.58;2.38;;;19.20;52.50;;;;;;3138344;28;20171;-78
2021/05/31 05:05:00;;;;;;;3.72;2.25;;;19.20;52.50;;;;;;3137676;28;20490;-78
2021/05/31 05:06:31;;;;;;;2.63;2.20;;;19.20;52.50;;;;;;3136712;28;20085;-79
2021/05/31 05:08:03;;;;;;;2.63;2.30;;;19.20;53.20;;;;;;3137399;28;20517;-78
2021/05/31 05:09:33;;;;;;;2.70;2.20;;;19.20;52.60;;;;;;3137349;28;20084;-79
2021/05/31 05:11:04;;;;;;;2.65;2.22;;;19.20;52.60;;;;;;3136588;28;20041;-79
2021/05/31 05:12:35;;;;;;;2.65;2.40;;;19.20;52.60;;;;;;3137402;28;20081;-78
2021/05/31 05:14:06;;;;;;;3.20;2.28;;;19.20;53.20;;;;;;3137328;28;20084;-79
2021/05/31 05:15:37;;;;;;;3.10;2.55;;;19.20;52.60;;;;;;3135729;28;20052;-80
2021/05/31 05:17:08;;;;;;;2.53;2.33;;;19.20;52.60;;;;;;3137228;28;20041;-80
2021/05/31 05:18:44;;;;;;;3.47;2.47;;;19.20;52.60;;;;;;3136999;28;20091;-79
2021/05/31 05:20:15;;;;;;;2.33;2.13;;;19.20;52.50;;;;;;3136736;28;20053;-78
2021/05/31 05:21:46;;;;;;;3.67;2.55;;;19.20;52.50;;;;;;3137167;28;20045;-79
2021/05/31 05:23:17;;;;;;;2.42;2.22;;;19.20;52.60;;;;;;3137687;28;20060;-79
2021/05/31 05:24:49;;;;;;;2.60;2.40;;;19.20;52.60;;;;;;3137061;28;20684;-79
2021/05/31 05:26:20;;;;;;;2.40;2.20;;;19.20;52.60;;;;;;3136533;28;20087;-78
2021/05/31 05:27:51;;;;;;;3.13;2.42;;;19.20;52.60;;;;;;3137364;28;20171;-79
2021/05/31 05:29:22;;;;;;;2.55;2.35;;;19.20;52.60;;;;;;3136405;28;20052;-79
2021/05/31 05:30:53;;;;;;;3.10;2.35;;;19.20;52.60;;;;;;3134812;28;20052;-78
2021/05/31 05:32:24;;;;;;;2.70;2.20;;;19.20;52.70;;;;;;3136753;28;20088;-78
2021/05/31 05:33:58;;;;;;;2.70;2.50;;;19.20;52.70;;;;;;3137723;28;20052;-79
2021/05/31 05:35:33;;;;;;;2.58;2.38;;;19.20;52.60;;;;;;3136858;28;20050;-79
2021/05/31 05:37:07;;;;;;;2.63;2.40;;;19.20;52.60;;;;;;3136595;28;20119;-78
2021/05/31 05:38:58;;;;;;;2.75;2.20;;;19.20;52.60;;;;;;3137288;28;20060;-79
2021/05/31 05:42:25;;;;;;;3.97;2.60;;;19.20;52.60;;;;;;3135031;28;20052;-79
2021/05/31 05:44:10;;;;;;;2.40;2.20;;;19.20;52.60;;;;;;3137010;28;20053;-78
2021/05/31 05:45:51;;;;;;;2.50;2.30;;;19.20;52.60;;;;;;3135584;28;20075;-79
2021/05/31 05:47:42;;;;;;;2.40;2.20;;;19.20;52.60;;;;;;3137023;28;20056;-79
2021/05/31 05:49:16;;;;;;;2.55;2.30;;;19.20;52.70;;;;;;3136834;28;20052;-78
2021/05/31 05:50:47;;;;;;;2.58;2.25;;;19.20;52.70;;;;;;3135938;28;20064;-78
2021/05/31 05:52:18;;;;;;;2.83;2.63;;;19.20;52.70;;;;;;3136982;28;20167;-79
2021/05/31 05:53:49;;;;;;;3.20;2.40;;;19.20;52.70;;;;;;3136762;28;20053;-79
2021/05/31 05:55:20;;;;;;;4.20;2.30;;;19.20;52.70;;;;;;3136570;28;20130;-80
2021/05/31 05:56:51;;;;;;;2.42;2.20;;;19.20;52.70;;;;;;3136892;28;20053;-79
2021/05/31 05:58:27;;;;;;;2.47;2.28;;;19.20;52.70;;;;;;3136583;28;20084;-78
2021/05/31 06:00:00;;;;;;;2.40;2.20;;;19.20;52.70;;;;;;3136273;28;20045;-78
2021/05/31 06:01:32;;;;;;;2.47;2.28;;;19.20;52.60;;;;;;3134520;28;20052;-78
2021/05/31 06:03:03;;;;;;;2.88;2.55;;;19.20;52.70;;;;;;3136987;28;20049;-79
2021/05/31 06:04:49;;;;;;;2.83;2.53;;;19.20;52.60;;;;;;3135918;28;20040;-79
2021/05/31 06:06:20;;;;;;;2.42;2.10;;;19.20;52.70;;;;;;3135481;28;20079;-78
2021/05/31 06:07:52;;;;;;;3.22;2.25;;;19.20;52.60;;;;;;3136438;28;20481;-78
2021/05/31 06:09:22;;;;;;;2.40;2.20;;;19.20;52.60;;;;;;3136798;28;20496;-80
2021/05/31 06:10:53;;;;;;;4.15;2.67;;;19.20;52.60;;;;;;3135846;28;20045;-79
2021/05/31 06:12:24;;;;;;;2.60;2.40;;;19.20;52.60;;;;;;3136409;28;20083;-78
2021/05/31 06:13:55;;;;;;;2.30;2.10;;;19.20;52.60;;;;;;3135977;28;20513;-79
2021/05/31 06:15:26;;;;;;;2.45;2.25;;;19.20;52.60;;;;;;3134961;28;20040;-79
2021/05/31 06:16:57;;;;;;;2.55;2.35;;;19.20;52.70;;;;;;3136550;28;20640;-79
2021/05/31 06:18:28;;;;;;;2.38;2.17;;;19.20;52.60;;;;;;3137017;28;20045;-79
2021/05/31 06:20:01;;;;;;;2.65;2.30;;;19.20;52.60;;;;;;3136112;28;20057;-79
2021/05/31 06:21:32;;;;;;;3.85;2.42;;;19.20;52.60;;;;;;3135789;28;20136;-79
2021/05/31 06:23:03;;;;;;;2.88;2.38;;;19.20;52.60;;;;;;3136304;28;20088;-78
2021/05/31 06:24:34;;;;;;;2.85;2.55;;;19.30;52.60;;;;;;3136417;28;20413;-78
2021/05/31 06:26:05;;;;;;;2.47;2.28;;;19.30;52.60;;;;;;3135831;28;20037;-78
2021/05/31 06:27:36;;;;;;;2.92;2.30;;;19.20;52.60;;;;;;3136002;28;20077;-79
2021/05/31 06:29:07;;;;;;;2.53;2.33;;;19.20;52.60;;;;;;3136600;28;20052;-79
2021/05/31 06:30:38;;;;;;;2.20;2.00;;;19.20;52.60;;;;;;3134917;28;20071;-80
2021/05/31 06:32:09;;;;;;;3.45;2.20;;;19.30;52.60;;;;;;3136501;28;20076;-78
2021/05/31 06:33:43;;;;;;;2.63;2.30;;;19.20;52.60;;;;;;3136664;28;20579;-79
2021/05/31 06:35:15;;;;;;;3.50;2.33;;;19.20;52.60;;;;;;3135876;28;20087;-80
2021/05/31 06:36:48;;;;;;;2.42;2.22;;;19.20;52.60;;;;;;3136120;28;20059;-80
2021/05/31 06:38:19;;;;;;;2.70;2.38;;;19.20;52.60;;;;;;3136462;28;20075;-79
2021/05/31 06:39:50;;;;;;;2.40;2.20;;;19.20;52.60;;;;;;3135784;28;20048;-78
2021/05/31 06:41:21;;;;;;;2.58;2.38;;;19.30;52.60;;;;;;3135480;28;20073;-78
2021/05/31 06:42:53;;;;;;;2.67;2.30;;;19.30;52.60;;;;;;3136305;28;20057;-79
2021/05/31 06:44:24;;;;;;;2.78;2.47;;;19.20;52.60;;;;;;3135879;28;20060;-79
2021/05/31 06:45:55;;;;;;;3.90;2.35;;;19.30;52.60;;;;;;3134857;28;20052;-79
2021/05/31 06:47:26;;;;;;;3.92;2.30;;;19.20;52.60;;;;;;3135810;28;20551;-78
2021/05/31 06:48:57;;;;;;;2.65;2.35;;;19.30;52.60;;;;;;3136015;28;20072;-78
2021/05/31 06:50:31;;;;;;;2.47;2.20;;;19.20;52.60;;;;;;3134976;28;20303;-78
2021/05/31 06:52:04;;;;;;;2.72;2.40;;;19.20;52.60;;;;;;3135893;28;20167;-78
2021/05/31 06:53:35;;;;;;;2.42;2.13;;;19.30;52.60;;;;;;3136028;28;20055;-79
2021/05/31 06:55:07;;;;;;;2.30;2.10;;;19.30;52.50;;;;;;3135837;28;20056;-79
2021/05/31 06:56:38;;;;;;;2.42;2.22;;;19.30;52.60;;;;;;3135878;28;20422;-79
2021/05/31 06:58:10;;;;;;;2.40;2.20;;;19.30;52.50;;;;;;3136265;28;20048;-79
2021/05/31 06:59:43;;;;;;;2.85;2.40;;;19.30;52.50;;;;;;3135880;28;20081;-78
2021/05/31 07:01:14;;;;;;;3.08;2.25;;;19.30;52.50;;;;;;3134449;28;20073;-78
2021/05/31 07:02:45;;;;;;;3.00;2.17;;;19.30;52.50;;;;;;3135948;28;20045;-79
2021/05/31 07:04:18;;;;;;;2.47;1.95;;;19.30;52.50;;;;;;3135915;28;20049;-79
2021/05/31 07:05:50;;;;;;;;;;;19.30;52.50;;;;;;3135954;28;20052;-79
2021/05/31 07:07:22;;;;;;;2.00;1.80;;;19.30;52.50;;;;;;3136070;28;19974;-79
2021/05/31 07:08:54;;;;;;;2.20;2.00;;;19.30;52.60;;;;;;3135971;28;20413;-78
2021/05/31 07:10:27;;;;;;;2.30;2.08;;;19.30;52.60;;;;;;3135086;28;20048;-79
2021/05/31 07:11:58;;;;;;;2.63;2.10;;;19.30;52.50;;;;;;3135999;28;20048;-79
2021/05/31 07:13:30;;;;;;;2.50;1.95;;;19.30;52.50;;;;;;3135933;28;20534;-79
2021/05/31 07:15:02;;;;;;;2.30;2.10;;;19.30;52.50;;;;;;3136240;28;20059;-78
2021/05/31 07:16:34;;;;;;;2.40;2.10;;;19.30;52.50;;;;;;3134927;28;20040;-79
2021/05/31 07:18:05;;;;;;;2.30;2.08;;;19.30;52.50;;;;;;3135970;28;20571;-79
2021/05/31 07:19:35;;;;;;;4.30;2.00;;;19.30;52.50;;;;;;3135633;28;20049;-79
2021/05/31 07:21:08;;;;;;;2.72;2.30;;;19.30;52.40;;;;;;3136608;28;20390;-79
2021/05/31 07:22:39;;;;;;;4.18;2.45;;;19.30;52.50;;;;;;3134966;28;20155;-77
2021/05/31 07:24:10;;;;;;;5.25;2.30;;;19.30;52.50;;;;;;3135180;28;20090;-77
2021/05/31 07:25:48;;;;;;;3.83;1.90;;;19.30;52.50;;;;;;3138605;28;20048;-79
2021/05/31 07:27:19;;;;;;;2.17;1.98;;;19.30;53.10;;;;;;3139656;28;20083;-79
2021/05/31 07:28:50;;;;;;;2.78;2.40;;;19.30;52.50;;;;;;3140246;28;20041;-79
2021/05/31 07:30:21;;;;;;;2.20;2.00;;;19.30;52.50;;;;;;3138471;28;20085;-79
2021/05/31 07:31:52;;;;;;;2.67;2.20;;;19.30;52.40;;;;;;3139915;28;20060;-79
2021/05/31 07:33:23;;;;;;;3.60;2.00;;;19.30;52.40;;;;;;3140269;28;20051;-79
2021/05/31 07:34:54;;;;;;;2.45;2.13;;;19.30;52.40;;;;;;3140042;28;20222;-78
2021/05/31 07:36:27;;;;;;;2.80;2.10;;;19.30;53.00;;;;;;3139453;28;20322;-78
2021/05/31 07:37:58;;;;;;;2.80;2.08;;;19.30;52.30;;;;;;3140029;28;20080;-79
2021/05/31 07:39:29;;;;;;;2.60;1.90;;;19.30;52.30;;;;;;3139906;28;20057;-79
2021/05/31 07:41:00;;;;;;;2.42;2.22;;;19.30;52.30;;;;;;3139266;28;20049;-79
2021/05/31 07:42:31;;;;;;;2.30;2.10;;;19.30;52.30;;;;;;3140106;28;20414;-78
2021/05/31 07:44:02;;;;;;;2.38;1.95;;;19.30;52.30;;;;;;3140488;28;20444;-79
2021/05/31 07:45:33;;;;;;;2.25;2.05;;;19.30;52.20;;;;;;3138223;28;20064;-78
2021/05/31 07:47:04;;;;;;;2.20;2.00;;;19.30;52.20;;;;;;3140160;28;20060;-79
2021/05/31 07:48:35;;;;;;;2.60;2.13;;;19.30;52.30;;;;;;3140200;28;20049;-79
2021/05/31 07:50:07;;;;;;;2.30;2.10;;;19.40;52.30;;;;;;3139056;28;20045;-78
2021/05/31 07:51:43;;;;;;;2.55;2.10;;;19.30;52.20;;;;;;3139840;28;20045;-78
2021/05/31 07:53:20;;;;;;;2.20;2.00;;;19.40;52.20;;;;;;3140035;28;20048;-78
2021/05/31 07:54:51;;;;;;;2.20;2.00;;;19.40;52.20;;;;;;3140029;28;20084;-79
2021/05/31 07:56:26;;;;;;;2.00;1.80;;;19.40;52.20;;;;;;3139732;28;20491;-80
2021/05/31 07:57:57;;;;;;;2.22;2.00;;;19.40;52.80;;;;;;3139965;28;20044;-79
2021/05/31 07:59:28;;;;;;;2.03;1.75;;;19.40;52.20;;;;;;3139735;28;20506;-78
2021/05/31 08:01:01;;;;;;;2.50;1.95;;;19.40;52.10;;;;;;3138335;28;20052;-79
2021/05/31 08:02:32;;;;;;;;;;;19.40;52.10;;;;;;3140392;28;20492;-80
2021/05/31 08:04:06;;;;;;;2.28;2.08;;;19.30;52.10;;;;;;3140102;28;19932;-79
2021/05/31 08:05:37;;;;;;;2.10;1.90;;;19.30;52.10;;;;;;3139287;28;20045;-79
2021/05/31 08:07:09;;;;;;;2.28;2.08;;;19.30;52.20;;;;;;3139837;28;20049;-79